Time;durP1;ratioP1;P1;durP2;ratioP2;P2;SDS_P1;SDS_P2;PMS_P1;PMS_P2;Temp;Humidity;BMP_temperature;BMP_pressure;BME280_temperature;BME280_humidity;BME280_pressure;Samples;Min_cycle;Max_cycle;Signal;HPM_P1;HPM_P2
2022/01/09 00:01:28;;;;;;;9.23;5.78;;;;;;;12.06;79.62;100802.63;4941892;28;20098;-91
2022/01/09 00:04:01;;;;;;;9.23;6.07;;;;;;;12.25;79.50;100838.47;4957909;28;20023;-92
2022/01/09 00:06:55;;;;;;;7.47;5.85;;;;;;;12.28;79.87;100841.25;4962879;28;20045;-91
2022/01/09 00:12:42;;;;;;;9.88;6.00;;;;;;;12.26;79.33;100826.28;4955243;29;20104;-91
2022/01/09 00:15:54;;;;;;;7.78;5.72;;;;;;;12.35;79.21;100829.34;4922324;29;20031;-92
2022/01/09 00:18:40;;;;;;;10.32;6.15;;;;;;;12.31;79.41;100820.44;4948109;28;20034;-91
2022/01/09 00:24:27;;;;;;;9.13;5.90;;;;;;;12.14;79.19;100790.81;4974575;28;20053;-92
2022/01/09 00:27:02;;;;;;;9.07;5.70;;;;;;;12.31;79.46;100817.81;4941748;28;20023;-93
2022/01/09 00:29:45;;;;;;;8.25;5.70;;;;;;;12.27;79.31;100800.16;4957353;28;20034;-94
2022/01/09 00:32:12;;;;;;;8.18;5.82;;;;;;;12.11;79.25;100788.06;4974741;28;20030;-92
2022/01/09 00:34:39;;;;;;;7.97;5.45;;;;;;;12.26;79.42;100811.47;4960320;28;20475;-94
2022/01/09 00:37:27;;;;;;;7.57;5.57;;;;;;;12.34;79.13;100803.97;4993713;28;20041;-93
2022/01/09 00:40:07;;;;;;;7.57;5.60;;;;;;;12.30;79.20;100800.31;4950370;28;20041;-94
2022/01/09 00:42:44;;;;;;;7.60;5.40;;;;;;;12.15;79.43;100770.78;4957545;28;20515;-94
2022/01/09 00:45:25;;;;;;;8.98;5.95;;;;;;;12.15;79.03;100763.84;4956932;28;20122;-91
2022/01/09 00:48:11;;;;;;;8.73;5.85;;;;;;;12.32;79.27;100798.66;4942783;28;20591;-91
2022/01/09 00:53:58;;;;;;;7.32;5.35;;;;;;;12.12;79.17;100770.63;4993864;28;20061;-93
2022/01/09 00:56:38;;;;;;;7.78;5.18;;;;;;;12.26;79.21;100773.94;4960082;28;20552;-92
2022/01/09 00:59:14;;;;;;;8.13;5.53;;;;;;;12.12;78.94;100747.97;4964186;28;20058;-91
2022/01/09 01:01:43;;;;;;;7.27;5.27;;;;;;;12.18;79.34;100769.19;4940550;28;20034;-91
2022/01/09 01:04:09;;;;;;;8.43;5.10;;;;;;;12.24;79.28;100771.22;4952909;28;20042;-91
2022/01/09 01:06:36;;;;;;;7.75;5.53;;;;;;;12.32;79.10;100785.56;4981320;28;20019;-91
2022/01/09 01:09:05;;;;;;;7.25;5.20;;;;;;;12.22;79.00;100762.41;4973437;28;20043;-91
2022/01/09 01:11:49;;;;;;;6.78;5.10;;;;;;;12.30;79.30;100776.75;4965073;28;20034;-91
2022/01/09 01:14:14;;;;;;;7.60;5.35;;;;;;;12.15;79.18;100747.22;4976394;28;20081;-90
2022/01/09 01:16:41;;;;;;;7.63;5.28;;;;;;;12.13;78.91;100741.94;4965155;28;20038;-90
2022/01/09 01:19:10;;;;;;;8.32;5.13;;;;;;;12.16;79.32;100752.53;4979186;28;20036;-90
2022/01/09 01:22:06;;;;;;;7.50;4.80;;;;;;;12.33;79.28;100769.03;4961895;28;20034;-91
2022/01/09 01:24:36;;;;;;;6.43;4.82;;;;;;;12.36;78.80;100765.66;4961512;28;20026;-91
2022/01/09 01:27:20;;;;;;;6.80;5.03;;;;;;;12.29;78.93;100748.75;4978690;28;20034;-91
2022/01/09 01:29:55;;;;;;;7.43;5.18;;;;;;;12.20;78.91;100728.28;4960045;28;20026;-90
2022/01/09 01:32:28;;;;;;;7.05;5.13;;;;;;;12.27;78.94;100746.91;4977847;28;20113;-89
2022/01/09 01:34:57;;;;;;;7.07;5.20;;;;;;;12.14;79.25;100728.00;4976045;28;20034;-90
2022/01/09 01:37:23;;;;;;;8.45;4.97;;;;;;;12.30;79.17;100749.69;4959486;28;20034;-91
2022/01/09 01:39:52;;;;;;;6.82;5.18;;;;;;;12.36;79.11;100747.31;4969964;28;20014;-90
2022/01/09 01:42:19;;;;;;;7.70;5.20;;;;;;;11.97;79.13;100697.53;4940815;28;20511;-92
2022/01/09 01:45:20;;;;;;;6.15;4.82;;;;;;;12.33;79.07;100755.03;4941047;28;20026;-93
2022/01/09 01:47:50;;;;;;;10.02;5.30;;;;;;;12.27;79.36;100742.56;4937274;29;20128;-92
2022/01/09 01:50:36;;;;;;;8.00;5.40;;;;;;;12.29;78.76;100722.56;4940169;29;20484;-91
2022/01/09 01:53:28;;;;;;;6.43;4.90;;;;;;;12.34;79.19;100733.25;4940501;29;20055;-91
2022/01/09 01:56:29;;;;;;;7.20;4.80;;;;;;;12.30;79.28;100733.97;4974965;28;20094;-92
2022/01/09 01:59:01;;;;;;;7.05;4.95;;;;;;;12.13;79.18;100702.66;4959901;28;20027;-92
2022/01/09 02:01:49;;;;;;;8.15;5.30;;;;;;;12.26;79.32;100737.28;4958095;28;20042;-91
2022/01/09 02:04:22;;;;;;;7.22;4.68;;;;;;;12.27;79.34;100720.72;4943214;28;20035;-91
2022/01/09 02:07:07;;;;;;;6.78;4.55;;;;;;;12.27;79.06;100728.56;4959822;28;20131;-91
2022/01/09 02:09:33;;;;;;;6.43;4.82;;;;;;;12.32;79.19;100727.97;4959443;28;20038;-91
2022/01/09 02:12:02;;;;;;;6.07;4.60;;;;;;;12.24;79.15;100712.75;4956587;28;20027;-91
2022/01/09 02:14:28;;;;;;;7.70;4.90;;;;;;;12.30;79.23;100727.00;4956301;29;20038;-91
2022/01/09 02:17:05;;;;;;;6.88;4.60;;;;;;;12.29;78.91;100717.34;4956382;29;20035;-93
2022/01/09 02:19:31;;;;;;;7.40;5.03;;;;;;;12.25;78.94;100704.03;4955927;29;20083;-94
2022/01/09 02:22:46;;;;;;;6.35;4.85;;;;;;;12.37;78.82;100710.75;4940526;29;20023;-94
2022/01/09 02:25:47;;;;;;;7.35;4.70;;;;;;;12.34;79.07;100710.63;4957426;29;20513;-93
2022/01/09 02:28:29;;;;;;;7.07;4.97;;;;;;;12.19;78.96;100683.69;4957291;29;20035;-91
2022/01/09 02:31:32;;;;;;;5.95;4.60;;;;;;;12.33;79.11;100705.28;4905743;29;20032;-94
2022/01/09 02:34:02;;;;;;;7.53;4.80;;;;;;;12.06;79.61;100668.25;4920951;29;20035;-94
2022/01/09 02:37:12;;;;;;;5.78;4.43;;;;;;;12.35;79.09;100695.78;4920991;29;20036;-94
2022/01/09 02:39:44;;;;;;;6.35;4.60;;;;;;;12.26;79.20;100690.16;4958249;28;20077;-95
2022/01/09 02:42:31;;;;;;;8.88;4.85;;;;;;;12.30;79.38;100686.84;4959549;28;20029;-94
2022/01/09 02:44:57;;;;;;;7.18;4.85;;;;;;;12.01;79.22;100637.53;4943558;28;20102;-95
2022/01/09 02:47:22;;;;;;;7.72;4.60;;;;;;;12.22;78.97;100665.53;4950036;28;20062;-93
2022/01/09 02:50:03;;;;;;;7.05;4.68;;;;;;;12.26;79.00;100664.84;4924919;29;20027;-95
2022/01/09 02:52:54;;;;;;;6.90;4.68;;;;;;;12.35;78.83;100680.06;4940830;29;20062;-95
2022/01/09 02:55:25;;;;;;;6.55;4.72;;;;;;;12.16;79.08;100646.94;4924870;29;20031;-92
2022/01/09 02:57:59;;;;;;;4.97;4.03;;;;;;;12.35;78.94;100677.47;4950885;28;20037;-95
2022/01/09 03:00:31;;;;;;;6.80;4.72;;;;;;;12.30;79.00;100677.25;4961849;28;20030;-93
2022/01/09 03:03:06;;;;;;;6.13;4.68;;;;;;;12.25;79.00;100670.91;4977707;28;20042;-94
2022/01/09 03:05:36;;;;;;;7.32;5.00;;;;;;;12.15;79.09;100647.75;4978230;28;20038;-94
2022/01/09 03:08:16;;;;;;;6.32;4.43;;;;;;;12.17;79.02;100635.63;4951739;28;20035;-93
2022/01/09 03:14:04;;;;;;;6.22;4.40;;;;;;;12.18;78.93;100640.03;4975889;28;20041;-93
2022/01/09 03:16:54;;;;;;;6.03;4.63;;;;;;;12.39;78.65;100658.44;4942578;28;20022;-93
2022/01/09 03:19:38;;;;;;;5.38;4.35;;;;;;;12.33;78.90;100656.44;4923579;29;20031;-93
2022/01/09 03:22:04;;;;;;;5.18;4.00;;;;;;;12.20;79.19;100638.38;4923377;29;20408;-94
2022/01/09 03:24:50;;;;;;;6.93;4.40;;;;;;;12.38;78.63;100652.31;4939301;29;20019;-92
2022/01/09 03:27:20;;;;;;;6.18;4.25;;;;;;;12.16;78.72;100616.41;4960302;28;20053;-92
2022/01/09 03:30:05;;;;;;;6.70;4.57;;;;;;;12.29;78.88;100640.53;4961522;28;20030;-91
2022/01/09 03:32:51;;;;;;;6.20;4.45;;;;;;;12.35;78.83;100643.41;4961685;28;20034;-92
2022/01/09 03:35:21;;;;;;;6.37;4.67;;;;;;;12.12;79.11;100614.47;4961440;28;20037;-90
2022/01/09 03:37:48;;;;;;;6.32;4.55;;;;;;;12.33;79.09;100652.94;4974997;28;20077;-90
2022/01/09 03:40:21;;;;;;;7.65;4.35;;;;;;;12.34;79.05;100666.09;4960228;28;20034;-90
2022/01/09 03:42:51;;;;;;;6.65;4.38;;;;;;;12.27;78.71;100652.66;4976955;28;20026;-90
2022/01/09 03:45:21;;;;;;;5.68;4.30;;;;;;;12.13;79.11;100645.06;4960673;28;20031;-91
2022/01/09 03:47:48;;;;;;;5.22;4.40;;;;;;;12.37;78.91;100660.97;4953657;28;20630;-91
2022/01/09 03:50:17;;;;;;;7.13;4.45;;;;;;;12.05;78.96;100604.56;4941427;28;20508;-91
2022/01/09 03:52:47;;;;;;;6.13;4.40;;;;;;;12.24;79.15;100635.09;4941383;28;20038;-90
2022/01/09 03:55:21;;;;;;;6.85;4.32;;;;;;;12.14;79.01;100618.06;4957718;28;20062;-90
2022/01/09 03:58:01;;;;;;;5.53;4.28;;;;;;;12.19;78.60;100610.41;4942122;28;20035;-92
2022/01/09 04:00:31;;;;;;;6.60;4.72;;;;;;;12.33;79.19;100652.94;4958448;28;20027;-91
2022/01/09 04:03:23;;;;;;;5.45;3.97;;;;;;;12.35;79.00;100649.53;4941436;28;20086;-91
2022/01/09 04:06:14;;;;;;;6.43;3.95;;;;;;;12.33;78.98;100663.41;4957952;28;20070;-92
2022/01/09 04:12:03;;;;;;;6.20;4.25;;;;;;;12.22;78.83;100634.13;4992435;28;20033;-94
2022/01/09 04:15:04;;;;;;;6.82;4.38;;;;;;;12.35;78.85;100667.88;4961269;28;20038;-95
2022/01/09 04:20:52;;;;;;;6.15;4.28;;;;;;;12.30;78.89;100656.31;4994322;28;20053;-94
2022/01/09 04:23:48;;;;;;;6.80;3.95;;;;;;;12.30;79.41;100658.03;4976208;28;20457;-93
2022/01/09 04:26:26;;;;;;;4.70;4.07;;;;;;;11.94;78.68;100590.09;4957391;28;20035;-94
2022/01/09 04:29:09;;;;;;;8.35;4.03;;;;;;;12.30;78.88;100653.69;4974542;28;20564;-92
2022/01/09 04:31:58;;;;;;;5.65;3.85;;;;;;;12.34;78.99;100659.94;4976502;28;20078;-93
2022/01/09 04:34:44;;;;;;;5.65;4.15;;;;;;;12.37;79.00;100658.38;4960569;28;20039;-93
2022/01/09 04:37:25;;;;;;;4.50;3.65;;;;;;;12.28;79.05;100646.59;4960482;28;20124;-93
2022/01/09 04:40:16;;;;;;;5.22;3.72;;;;;;;12.35;79.34;100669.59;4976645;28;20100;-92
2022/01/09 04:43:20;;;;;;;5.50;4.18;;;;;;;12.41;78.70;100657.69;4964841;28;20039;-93
2022/01/09 04:45:51;;;;;;;5.18;4.07;;;;;;;12.17;78.85;100633.00;4957308;28;20038;-91
2022/01/09 04:48:17;;;;;;;5.38;4.07;;;;;;;12.12;79.08;100621.44;4941326;29;20088;-91
2022/01/09 04:50:45;;;;;;;5.13;3.92;;;;;;;12.09;78.80;100621.31;4956837;29;20050;-89
2022/01/09 04:53:15;;;;;;;5.53;3.80;;;;;;;12.35;78.92;100667.00;4926745;29;20039;-90
2022/01/09 04:55:45;;;;;;;5.72;4.07;;;;;;;12.14;79.02;100638.09;4941220;29;20027;-92
2022/01/09 04:59:04;;;;;;;5.88;3.80;;;;;;;12.36;78.88;100661.81;4938431;29;20078;-92
2022/01/09 05:01:31;;;;;;;6.45;4.32;;;;;;;12.04;79.03;100613.22;4954421;29;20036;-93
2022/01/09 05:04:05;;;;;;;5.72;4.07;;;;;;;12.20;79.12;100636.66;4920800;29;20043;-92
2022/01/09 05:06:39;;;;;;;5.53;4.07;;;;;;;12.07;78.91;100610.75;4934229;29;20024;-92
2022/01/09 05:09:46;;;;;;;4.88;3.72;;;;;;;12.35;79.05;100657.41;4916948;29;20040;-91
2022/01/09 05:13:01;;;;;;;5.68;3.80;;;;;;;12.38;79.08;100651.41;4936768;29;20027;-93
2022/01/09 05:15:27;;;;;;;5.03;3.60;;;;;;;12.18;78.75;100622.59;4940361;29;20493;-92
2022/01/09 05:18:11;;;;;;;7.78;4.45;;;;;;;12.01;78.77;100587.81;4922313;29;20035;-93
2022/01/09 05:20:51;;;;;;;6.05;3.72;;;;;;;12.26;78.91;100620.34;4937437;29;20050;-94
2022/01/09 05:23:19;;;;;;;5.70;3.90;;;;;;;12.08;79.10;100588.09;4913855;29;20043;-91
2022/01/09 05:25:44;;;;;;;6.18;3.80;;;;;;;12.34;79.12;100633.75;4927982;29;20102;-90
2022/01/09 05:28:17;;;;;;;4.18;3.63;;;;;;;12.21;79.14;100613.97;4941092;29;20111;-91
2022/01/09 05:31:16;;;;;;;5.47;4.03;;;;;;;12.39;78.83;100634.88;4940985;29;20032;-93
2022/01/09 05:33:55;;;;;;;5.70;4.05;;;;;;;12.32;78.96;100633.72;4940878;29;20093;-93
2022/01/09 05:39:44;;;;;;;5.32;4.07;;;;;;;12.14;78.63;100601.47;4958142;29;20057;-92
2022/01/09 05:42:17;;;;;;;5.05;3.42;;;;;;;12.24;79.15;100629.84;4912672;29;20042;-92
2022/01/09 05:45:03;;;;;;;4.90;3.92;;;;;;;12.35;78.96;100640.81;4925063;29;20053;-92
2022/01/09 05:47:28;;;;;;;5.20;3.65;;;;;;;12.38;79.00;100643.53;4941336;29;20043;-92
2022/01/09 05:49:55;;;;;;;4.57;3.85;;;;;;;12.16;79.06;100605.94;4957709;29;20033;-90
2022/01/09 05:52:37;;;;;;;7.75;4.25;;;;;;;12.20;79.08;100610.47;4924641;29;20039;-92
2022/01/09 05:55:19;;;;;;;5.90;3.92;;;;;;;12.33;78.88;100627.63;4924781;29;20095;-92
2022/01/09 05:57:57;;;;;;;5.95;3.75;;;;;;;12.19;78.89;100605.16;4957714;29;20103;-94
2022/01/09 06:01:10;;;;;;;6.35;3.85;;;;;;;12.43;78.87;100634.19;4941355;28;20089;-92
2022/01/09 06:03:43;;;;;;;5.90;3.70;;;;;;;12.29;79.17;100627.44;4977090;28;20063;-92
2022/01/09 06:06:08;;;;;;;4.32;3.40;;;;;;;12.28;78.53;100618.69;4943507;28;20038;-91
2022/01/09 06:08:34;;;;;;;5.65;4.00;;;;;;;12.32;78.92;100619.69;4959037;28;20030;-90
2022/01/09 06:11:00;;;;;;;5.63;4.05;;;;;;;12.34;79.05;100632.06;4959053;28;20046;-89
2022/01/09 06:16:47;;;;;;;4.78;3.67;;;;;;;12.11;78.75;100597.00;4972592;28;20041;-89
2022/01/09 06:19:59;;;;;;;5.65;3.83;;;;;;;12.33;79.28;100639.84;4905390;29;20032;-91
2022/01/09 06:22:41;;;;;;;11.65;4.22;;;;;;;12.38;86.06;100620.91;4921006;29;20490;-95
2022/01/09 06:25:07;;;;;;;8.90;5.35;;;;;;;12.25;82.48;100587.13;4915622;29;20031;-93
2022/01/09 06:27:51;;;;;;;8.73;4.88;;;;;;;12.57;81.60;100632.16;4904734;29;20067;-91
2022/01/09 06:30:18;;;;;;;6.95;4.35;;;;;;;12.32;82.12;100609.22;4904726;29;20039;-92
2022/01/09 06:32:49;;;;;;;7.43;4.30;;;;;;;12.14;81.76;100577.91;4905644;29;20430;-93
2022/01/09 06:35:27;;;;;;;7.60;4.55;;;;;;;12.48;81.92;100643.13;4922910;29;20035;-94
2022/01/09 06:38:37;;;;;;;5.88;4.07;;;;;;;12.53;81.36;100632.84;4920921;29;20035;-92
2022/01/09 06:41:05;;;;;;;9.05;4.38;;;;;;;12.33;81.44;100611.91;4926921;29;20090;-94
2022/01/09 06:43:48;;;;;;;11.30;4.65;;;;;;;12.20;80.80;100591.28;4925003;29;20039;-94
2022/01/09 06:46:22;;;;;;;5.28;3.90;;;;;;;12.30;81.13;100614.41;4967780;28;20067;-95
2022/01/09 06:48:52;;;;;;;7.57;4.75;;;;;;;12.37;80.96;100632.19;4925387;29;20050;-95
2022/01/09 06:51:33;;;;;;;6.47;4.50;;;;;;;12.30;80.80;100619.66;4931005;29;20027;-96
2022/01/09 06:54:07;;;;;;;9.45;4.20;;;;;;;12.40;81.17;100642.81;4927422;29;20493;-96
2022/01/09 06:56:46;;;;;;;8.93;4.85;;;;;;;12.51;81.01;100651.13;4930390;28;20117;-95
2022/01/09 06:59:54;;;;;;;8.20;4.80;;;;;;;12.47;81.42;100653.56;4959014;28;20094;-96
2022/01/09 07:02:19;;;;;;;9.15;4.63;;;;;;;12.33;80.80;100622.41;4960211;28;20486;-95
2022/01/09 07:04:50;;;;;;;17.23;5.57;;;;;;;12.45;80.99;100640.38;4941269;29;20036;-90
2022/01/09 07:07:16;;;;;;;10.10;4.35;;;;;;;12.36;80.99;100622.56;4959213;28;20033;-91
2022/01/09 07:10:06;;;;;;;11.23;5.30;;;;;;;12.48;81.26;100639.63;4932903;28;20034;-91
2022/01/09 07:12:34;;;;;;;9.82;4.90;;;;;;;12.38;81.17;100625.22;4930636;29;20557;-91
2022/01/09 07:15:16;;;;;;;11.15;5.25;;;;;;;12.15;81.22;100585.84;4947651;28;20109;-91
2022/01/09 07:17:47;;;;;;;9.90;5.05;;;;;;;12.21;81.41;100604.44;4930047;29;20070;-91
2022/01/09 07:20:12;;;;;;;11.32;5.25;;;;;;;12.40;81.33;100627.09;4920144;29;20038;-90
2022/01/09 07:22:41;;;;;;;11.40;5.50;;;;;;;12.52;80.80;100641.56;4922235;29;20075;-88
2022/01/09 07:25:07;;;;;;;13.50;5.70;;;;;;;12.50;80.57;100627.50;4935253;29;20037;-91
2022/01/09 07:27:35;;;;;;;;;;;;;;;12.61;80.52;100636.69;4918884;29;20035;-90
2022/01/09 07:30:02;;;;;;;;;;;;;;;12.62;80.63;100643.75;4922631;29;19915;-90
2022/01/09 07:32:28;;;;;;;12.82;5.38;;;;;;;12.25;80.98;100584.50;4938131;29;19914;-89
2022/01/09 07:35:02;;;;;;;10.38;5.50;;;;;;;12.45;81.56;100631.66;4922325;29;20118;-90
2022/01/09 07:37:30;;;;;;;9.32;5.22;;;;;;;12.43;81.50;100619.34;4938278;29;20035;-90
2022/01/09 07:40:07;;;;;;;11.52;5.50;;;;;;;12.53;81.63;100628.53;4922376;29;20117;-92
2022/01/09 07:42:47;;;;;;;12.68;5.50;;;;;;;12.30;81.56;100574.25;4922266;29;20118;-90
2022/01/09 07:45:15;;;;;;;13.15;6.32;;;;;;;12.57;82.01;100622.59;4922355;29;20054;-91
2022/01/09 07:47:45;;;;;;;15.10;5.72;;;;;;;12.62;81.63;100615.81;4947203;28;20125;-91
2022/01/09 07:50:11;;;;;;;12.90;5.75;;;;;;;12.62;82.04;100614.94;4974260;28;20026;-90
2022/01/09 07:52:39;;;;;;;15.98;6.15;;;;;;;12.50;82.06;100585.59;4931156;29;20150;-88
2022/01/09 07:55:06;;;;;;;15.73;6.10;;;;;;;12.40;82.97;100581.66;4938702;28;20041;-90
2022/01/09 07:57:32;;;;;;;12.75;5.82;;;;;;;12.39;83.12;100577.25;4940797;28;20424;-89
2022/01/09 08:00:03;;;;;;;18.08;6.72;;;;;;;12.69;82.57;100613.47;4955703;28;20495;-88
2022/01/09 08:02:29;;;;;;;16.70;6.75;;;;;;;12.58;82.71;100598.19;4956048;28;20070;-88
2022/01/09 08:04:54;;;;;;;15.90;6.70;;;;;;;12.66;83.02;100608.06;4947887;28;20460;-88
2022/01/09 08:07:20;;;;;;;17.90;7.15;;;;;;;12.40;82.96;100560.72;4958842;28;20031;-89
2022/01/09 08:09:47;;;;;;;17.15;7.10;;;;;;;12.50;83.60;100581.22;4955291;28;20022;-87
2022/01/09 08:12:14;;;;;;;;;;;;;;;12.56;84.62;100607.69;4939202;28;20449;-88
2022/01/09 08:14:44;;;;;;;14.85;7.50;;;;;;;12.66;84.68;100608.06;4955976;28;19921;-88
2022/01/09 08:17:12;;;;;;;15.73;7.00;;;;;;;12.60;84.77;100608.72;4956119;28;20043;-89
2022/01/09 08:19:38;;;;;;;17.05;7.50;;;;;;;12.60;85.11;100607.00;4955198;28;20524;-87
2022/01/09 08:22:05;;;;;;;15.55;7.47;;;;;;;12.45;85.52;100574.03;4956101;28;20038;-88
2022/01/09 08:24:32;;;;;;;17.25;7.88;;;;;;;12.58;85.50;100590.31;4939828;28;20022;-87
2022/01/09 08:26:59;;;;;;;22.33;7.97;;;;;;;12.60;85.63;100579.91;4955987;28;20030;-88
2022/01/09 08:29:26;;;;;;;13.38;7.25;;;;;;;12.63;85.20;100590.50;4973120;28;20027;-87
2022/01/09 08:31:52;;;;;;;16.88;8.20;;;;;;;12.63;85.15;100583.53;4953394;28;20023;-88
2022/01/09 08:34:17;;;;;;;12.38;7.32;;;;;;;12.67;84.51;100589.81;4946843;28;20057;-87
2022/01/09 08:36:43;;;;;;;17.70;7.97;;;;;;;12.63;85.88;100586.16;4956649;28;20049;-86
2022/01/09 08:39:10;;;;;;;15.45;8.00;;;;;;;12.68;85.17;100578.53;4972924;28;20070;-85
2022/01/09 08:41:36;;;;;;;14.07;7.50;;;;;;;12.50;85.66;100547.19;4940298;28;20031;-88
2022/01/09 08:44:04;;;;;;;13.32;7.97;;;;;;;12.67;85.30;100573.22;4939915;28;20035;-88
2022/01/09 08:46:31;;;;;;;13.55;7.90;;;;;;;12.62;85.09;100578.25;4972700;28;20034;-87
2022/01/09 08:48:57;;;;;;;13.40;7.30;;;;;;;12.73;85.06;100574.34;4920592;29;20039;-88
2022/01/09 08:51:23;;;;;;;15.85;7.60;;;;;;;12.53;84.60;100538.56;4935906;29;20086;-87
2022/01/09 08:53:52;;;;;;;12.27;7.28;;;;;;;12.58;84.56;100542.28;4930243;29;20040;-87
2022/01/09 08:56:22;;;;;;;13.07;7.07;;;;;;;12.55;84.63;100534.28;4951335;28;20039;-87
2022/01/09 08:58:49;;;;;;;11.93;7.20;;;;;;;12.71;84.98;100554.16;4915681;29;20035;-88
2022/01/09 09:01:15;;;;;;;;;;;;;;;12.73;84.70;100555.13;4940081;29;20122;-89
2022/01/09 09:03:41;;;;;;;13.93;7.90;;;;;;;12.59;84.98;100529.25;4945176;29;20013;-89
2022/01/09 09:06:15;;;;;;;16.50;7.75;;;;;;;12.67;84.86;100537.41;4941384;29;20035;-89
2022/01/09 09:08:42;;;;;;;14.13;8.20;;;;;;;12.64;84.88;100534.69;4956183;28;20038;-88
2022/01/09 09:11:10;;;;;;;16.48;7.85;;;;;;;12.70;85.43;100547.13;4961290;28;20066;-88
2022/01/09 09:13:36;;;;;;;13.75;7.57;;;;;;;12.73;84.98;100550.78;4943443;28;20039;-89
2022/01/09 09:16:03;;;;;;;;;;;;;;;12.78;84.76;100546.63;4959976;28;20030;-89
2022/01/09 09:18:29;;;;;;;12.80;7.47;;;;;;;12.43;84.85;100490.16;4958545;28;19940;-89
2022/01/09 09:20:57;;;;;;;14.70;7.72;;;;;;;12.46;84.97;100481.53;4955164;28;20274;-88
2022/01/09 09:23:24;;;;;;;13.43;7.47;;;;;;;12.73;84.62;100535.06;4959221;28;20098;-89
2022/01/09 09:25:51;;;;;;;15.63;7.65;;;;;;;12.67;85.56;100544.38;4942110;28;20034;-90
2022/01/09 09:28:17;;;;;;;11.82;7.30;;;;;;;12.28;85.48;100458.97;4957841;28;20039;-89
2022/01/09 09:30:46;;;;;;;;;;;;;;;12.80;84.23;100536.19;4935033;28;20034;-90
2022/01/09 09:33:14;;;;;;;14.35;7.72;;;;;;;12.67;85.34;100526.06;4940568;29;20001;-90
2022/01/09 09:35:41;;;;;;;14.75;8.00;;;;;;;12.59;85.67;100504.75;4957673;29;20103;-89
2022/01/09 09:38:06;;;;;;;16.48;7.22;;;;;;;12.67;85.19;100521.69;4940304;29;20028;-90
2022/01/09 09:40:34;;;;;;;16.13;7.68;;;;;;;12.53;85.01;100488.78;4946101;28;20042;-89
2022/01/09 09:42:59;;;;;;;16.88;8.27;;;;;;;12.50;84.82;100480.81;4948016;29;20066;-89
2022/01/09 09:45:26;;;;;;;14.35;8.38;;;;;;;12.65;85.31;100525.09;4954651;29;20478;-89
2022/01/09 09:47:52;;;;;;;17.77;8.50;;;;;;;12.71;85.42;100526.22;4948332;29;20544;-88
2022/01/09 09:50:20;;;;;;;16.80;8.55;;;;;;;12.45;85.12;100474.50;4955582;29;20058;-89
2022/01/09 09:52:47;;;;;;;20.25;8.50;;;;;;;12.67;84.84;100518.19;4939539;29;20039;-88
2022/01/09 09:55:32;;;;;;;15.80;8.35;;;;;;;12.67;84.83;100520.81;4956125;29;20027;-93
2022/01/09 09:58:03;;;;;;;16.40;8.80;;;;;;;12.60;85.45;100511.81;4956679;28;20114;-92
2022/01/09 10:00:35;;;;;;;31.48;14.57;;;;;;;12.44;97.03;100473.59;4922666;29;20502;-95
2022/01/09 10:03:31;;;;;;;35.25;14.13;;;;;;;12.64;92.40;100513.72;4937297;29;20047;-93
2022/01/09 10:06:03;;;;;;;29.33;13.95;;;;;;;12.57;88.64;100483.78;4955596;28;20505;-91
2022/01/09 10:08:36;;;;;;;25.23;13.23;;;;;;;12.27;88.35;100425.75;4939603;29;20126;-92
2022/01/09 10:11:12;;;;;;;25.85;13.18;;;;;;;12.57;87.54;100473.28;4970641;28;20405;-88
2022/01/09 10:13:39;;;;;;;27.83;13.87;;;;;;;12.75;86.89;100494.09;4956549;29;20075;-90
2022/01/09 10:16:05;;;;;;;23.88;12.93;;;;;;;12.55;85.69;100474.94;4952118;28;20038;-92
2022/01/09 10:18:42;;;;;;;22.05;13.13;;;;;;;12.71;86.09;100493.91;4942809;28;20030;-88
2022/01/09 10:21:23;;;;;;;;;;;;;;;12.73;85.09;100489.63;4967387;28;20031;-89
2022/01/09 10:24:02;;;;;;;23.42;12.27;;;;;;;12.66;84.44;100491.09;4974974;28;20009;-89
2022/01/09 10:26:29;;;;;;;20.63;12.63;;;;;;;12.60;84.78;100483.88;4942990;28;20491;-89
2022/01/09 10:28:59;;;;;;;26.08;12.55;;;;;;;12.35;84.14;100423.47;4960440;28;20027;-89
2022/01/09 10:31:27;;;;;;;22.88;12.18;;;;;;;12.47;84.22;100441.44;4944757;28;20034;-94
2022/01/09 10:34:07;;;;;;;20.98;11.82;;;;;;;12.35;84.13;100419.13;4906588;29;20042;-92
2022/01/09 10:37:20;;;;;;;22.55;12.00;;;;;;;12.64;83.70;100471.81;4942325;28;20114;-91
2022/01/09 10:39:49;;;;;;;23.95;12.25;;;;;;;12.40;83.27;100429.78;4947606;29;20047;-92
2022/01/09 10:42:20;;;;;;;20.05;11.52;;;;;;;12.59;83.72;100473.34;4921399;29;20094;-95
2022/01/09 10:48:03;;;;;;;20.77;11.95;;;;;;;12.52;84.46;100461.72;4959306;28;20051;-88
2022/01/09 10:50:33;;;;;;;32.53;15.43;;;;;;;12.59;94.83;100466.41;4934429;29;20091;-87
2022/01/09 10:53:34;;;;;;;44.08;17.05;;;;;;;12.73;93.82;100463.44;4930846;29;20069;-92
2022/01/09 10:56:21;;;;;;;32.95;17.20;;;;;;;12.52;95.12;100426.78;4864991;29;20048;-92
2022/01/09 10:58:58;;;;;;;37.92;16.13;;;;;;;12.47;94.34;100410.88;4866023;29;20074;-95
2022/01/09 11:01:37;;;;;;;37.65;16.17;;;;;;;12.78;93.39;100446.16;4866420;29;20040;-93
2022/01/09 11:04:33;;;;;;;33.80;16.23;;;;;;;12.76;93.12;100451.34;4879898;29;20033;-93
2022/01/09 11:07:00;;;;;;;33.60;15.98;;;;;;;12.74;92.71;100445.16;4923426;29;20039;-90
2022/01/09 11:13:03;;;;;;;36.85;15.90;;;;;;;12.45;92.04;100388.09;4975622;28;20064;-94
2022/01/09 11:16:32;;;;;;;31.95;16.83;;;;;;;12.73;91.81;100425.00;4956884;28;20034;-93
2022/01/09 11:18:33;;;;;;;28.73;16.30;;;;;;;12.77;91.77;100431.28;4951686;29;20386;-94
2022/01/09 11:21:01;;;;;;;30.40;16.40;;;;;;;12.63;91.55;100405.41;4921925;29;20111;-96
2022/01/09 11:23:50;;;;;;;35.80;16.73;;;;;;;12.77;90.89;100429.53;4904108;28;20486;-94
2022/01/09 11:30:04;;;;;;;29.17;16.13;;;;;;;12.60;90.98;100388.69;4957085;28;20046;-94
2022/01/09 11:33:05;;;;;;;28.60;16.13;;;;;;;12.80;90.74;100415.66;4943318;28;20109;-93
2022/01/09 11:36:10;;;;;;;30.83;16.73;;;;;;;12.78;90.62;100413.00;4959509;29;20135;-95
2022/01/09 11:38:50;;;;;;;31.65;16.50;;;;;;;12.61;90.23;100380.91;4925362;29;20047;-87
2022/01/09 11:41:27;;;;;;;31.38;16.13;;;;;;;12.35;90.36;100342.31;4956260;29;20027;-94
2022/01/09 11:43:58;;;;;;;31.95;16.20;;;;;;;12.73;90.07;100388.34;4924671;29;20043;-95
2022/01/09 11:46:28;;;;;;;33.13;16.38;;;;;;;12.73;89.59;100398.81;4933461;29;21657;-94
2022/01/09 11:49:09;;;;;;;31.45;16.65;;;;;;;12.74;89.51;100391.84;4915065;29;20047;-95
2022/01/09 11:51:55;;;;;;;34.72;16.48;;;;;;;12.79;88.96;100392.94;4920646;29;20083;-95
2022/01/09 11:54:52;;;;;;;28.85;16.58;;;;;;;12.46;89.15;100341.00;4907692;29;20037;-95
2022/01/09 11:57:47;;;;;;;30.75;16.00;;;;;;;12.72;89.32;100386.56;4905675;29;20035;-92
2022/01/09 12:03:35;;;;;;;32.08;16.08;;;;;;;12.51;89.30;100341.16;4937630;29;20122;-90
2022/01/09 12:09:33;;;;;;;32.50;17.35;;;;;;;12.70;89.24;100380.38;4938251;29;20094;-93
2022/01/09 12:15:36;;;;;;;33.15;17.17;;;;;;;12.56;89.11;100343.16;4951618;29;20548;-90
2022/01/09 12:21:39;;;;;;;29.65;16.23;;;;;;;12.65;88.87;100362.69;4944389;28;20077;-95
2022/01/09 12:27:35;;;;;;;30.80;16.90;;;;;;;12.66;89.18;100364.44;4937868;29;20119;-95
2022/01/09 12:33:24;;;;;;;32.70;18.23;;;;;;;12.65;88.58;100362.69;4943153;28;20155;-96
2022/01/09 12:39:16;;;;;;;30.95;17.90;;;;;;;12.58;88.64;100349.34;4978435;28;20034;-95
2022/01/09 12:45:05;;;;;;;33.42;18.95;;;;;;;12.64;88.76;100351.31;4972946;28;20054;-94
2022/01/09 12:55:36;;;;;;;31.83;18.50;;;;;;;12.53;88.49;100334.28;4935877;29;20046;-95
2022/01/09 13:01:25;;;;;;;29.15;18.40;;;;;;;12.47;88.24;100319.22;4938336;29;20445;-95
2022/01/09 13:07:16;;;;;;;31.05;18.13;;;;;;;12.55;88.18;100349.22;4955970;28;20037;-94
2022/01/09 13:13:08;;;;;;;29.27;17.35;;;;;;;12.59;87.85;100360.69;4944808;29;20508;-94
2022/01/09 13:19:00;;;;;;;30.45;18.52;;;;;;;12.57;88.26;100360.66;4953249;29;20042;-92
2022/01/09 13:24:47;;;;;;;31.38;18.42;;;;;;;12.48;88.79;100351.53;4955369;28;20027;-95
2022/01/09 13:30:34;;;;;;;30.17;17.95;;;;;;;12.41;87.86;100326.84;4960763;28;20038;-92
2022/01/09 13:36:37;;;;;;;34.67;18.13;;;;;;;12.48;87.46;100325.34;4962515;28;20511;-94